Havelock, NC

2:54 PM EDT on September 20, 2014 (GMT -0400)
Cherry Point Marine Corps Air Station | Change Station
CLOSE
Current Station
Airport
Location: Cherry Point,
Elevation: 26 ft
Nearby Weather Stations

Elev 26 ft 34.90 °N, 76.88 °W | Updated 35 minutes ago

Scattered Clouds
Scattered Clouds
76 °F
Feels Like 76 °F
N
14
Wind Variable Wind from NE

Today
High -- | Low -- °F
--% Chance of Precip.
Yesterday
High -- | Low -- °F
Precip. -- in
6:54 AM 7:07 PM
Waning Crescent, 11% visible
Pressure 30.05 in
Visibility 10.0 miles
Clouds Few 1700 ft
Scattered Clouds 2400 ft
Dew Point 69 °F
Humidity 79%
Rainfall 0.20 in
Snow Depth Not available.
UV 6 out of 12
Pollen 7.00 out of 12
Air Quality Not available.
Flu Activity Not available.
SPECI KNKT 201819Z 05012KT 10SM FEW017 SCT024 24/21 A3005 RMK AO2 T02440206

More Conditions Fewer Conditions

Pressure 30.05 in
Visibility 10.0 miles
Clouds Few 1700 ft
Scattered Clouds 2400 ft
Dew Point 69 °F
Humidity 79%
Rainfall 0.20 in
Snow Depth Not available.
UV 6 out of 12
Pollen 7.00 out of 12
Air Quality Not available.
Flu Activity Not available.
SPECI KNKT 201819Z 05012KT 10SM FEW017 SCT024 24/21 A3005 RMK AO2 T02440206

More Conditions Fewer Conditions

10-Day Weather Forecast

Almanac

Astronomy

Sep. 20, 2014 Rise Set
Actual Time 6:54 AM EDT 7:07 PM EDT
Civil Twilight 6:28 AM EDT 7:32 PM EDT
Nautical Twilight 5:59 AM EDT 8:01 PM EDT
Astronomical Twilight 5:29 AM EDT 8:31 PM EDT
Moon 3:37 AM EDT 5:04 PM EDT
Length of Visible Light 13h 03m
Length of Day
12h 13m
Tomorrow will be 2m 10s shorter.
Waning Crescent, 11% of the Moon is Illuminated
Today
Waning Crescent
Sep 24
New
Oct 1
First Quarter
Oct 8
Full
Oct 15
Last Quarter

Today's Extremes

State Highs State Lows

Community

WunderPhotos

Upload Photos

1,754,923 photos uploaded!

WunderBlogs® & News

Nearby

Snow Depth

Station Depth Elevation
No new snow has been reported.

Earthquake Activity

City Distance Mag. Time & Date
No recent earthquake activity has been reported nearby.
Minimum magnitude displayed is 2.5.

Coastal Water Temperatures

Place Temperature
No Stations Reporting

Nearby Weather Stations